sensor_id;sensor_type;location;lat;lon;timestamp;temperature;humidity
70830;SHT30;58451;51.550;7.208;2024-02-04T00:01:25;10.84;84.67
70830;SHT30;58451;51.550;7.208;2024-02-04T00:02:57;10.84;84.67
70830;SHT30;58451;51.550;7.208;2024-02-04T00:04:29;10.85;84.62
70830;SHT30;58451;51.550;7.208;2024-02-04T00:06:04;10.84;84.62
70830;SHT30;58451;51.550;7.208;2024-02-04T00:07:36;10.84;84.60
70830;SHT30;58451;51.550;7.208;2024-02-04T00:09:08;10.84;84.60
70830;SHT30;58451;51.550;7.208;2024-02-04T00:10:40;10.82;84.65
70830;SHT30;58451;51.550;7.208;2024-02-04T00:12:12;10.83;84.60
70830;SHT30;58451;51.550;7.208;2024-02-04T00:13:44;10.83;84.60
70830;SHT30;58451;51.550;7.208;2024-02-04T00:15:16;10.82;84.60
70830;SHT30;58451;51.550;7.208;2024-02-04T00:16:48;10.81;84.60
70830;SHT30;58451;51.550;7.208;2024-02-04T00:18:20;10.82;84.63
70830;SHT30;58451;51.550;7.208;2024-02-04T00:19:52;10.82;84.62
70830;SHT30;58451;51.550;7.208;2024-02-04T00:21:24;10.82;84.60
70830;SHT30;58451;51.550;7.208;2024-02-04T00:22:56;10.82;84.58
70830;SHT30;58451;51.550;7.208;2024-02-04T00:24:28;10.82;84.57
70830;SHT30;58451;51.550;7.208;2024-02-04T00:26:01;10.82;84.55
70830;SHT30;58451;51.550;7.208;2024-02-04T00:27:32;10.81;84.53
70830;SHT30;58451;51.550;7.208;2024-02-04T00:29:05;10.82;84.50
70830;SHT30;58451;51.550;7.208;2024-02-04T00:30:37;10.82;84.52
70830;SHT30;58451;51.550;7.208;2024-02-04T00:32:10;10.81;84.53
70830;SHT30;58451;51.550;7.208;2024-02-04T00:33:42;10.81;84.53
70830;SHT30;58451;51.550;7.208;2024-02-04T00:35:15;10.82;84.58
70830;SHT30;58451;51.550;7.208;2024-02-04T00:36:47;10.83;84.57
70830;SHT30;58451;51.550;7.208;2024-02-04T00:38:19;10.84;84.62
70830;SHT30;58451;51.550;7.208;2024-02-04T00:39:50;10.84;84.62
70830;SHT30;58451;51.550;7.208;2024-02-04T00:41:22;10.85;84.65
70830;SHT30;58451;51.550;7.208;2024-02-04T00:42:55;10.85;84.60
70830;SHT30;58451;51.550;7.208;2024-02-04T00:44:27;10.85;84.57
70830;SHT30;58451;51.550;7.208;2024-02-04T00:45:59;10.88;84.55
70830;SHT30;58451;51.550;7.208;2024-02-04T00:47:33;10.86;84.55
70830;SHT30;58451;51.550;7.208;2024-02-04T00:49:05;10.88;84.58
70830;SHT30;58451;51.550;7.208;2024-02-04T00:50:37;10.88;84.55
70830;SHT30;58451;51.550;7.208;2024-02-04T00:52:09;10.88;84.63
70830;SHT30;58451;51.550;7.208;2024-02-04T00:53:41;10.88;84.60
70830;SHT30;58451;51.550;7.208;2024-02-04T00:55:13;10.88;84.60
70830;SHT30;58451;51.550;7.208;2024-02-04T00:56:45;10.88;84.62
70830;SHT30;58451;51.550;7.208;2024-02-04T00:58:18;10.87;84.60
70830;SHT30;58451;51.550;7.208;2024-02-04T00:59:50;10.87;84.62
70830;SHT30;58451;51.550;7.208;2024-02-04T01:01:22;10.86;84.63
70830;SHT30;58451;51.550;7.208;2024-02-04T01:02:54;10.81;84.75
70830;SHT30;58451;51.550;7.208;2024-02-04T01:04:28;10.79;84.80
70830;SHT30;58451;51.550;7.208;2024-02-04T01:06:01;10.74;84.88
70830;SHT30;58451;51.550;7.208;2024-02-04T01:07:33;10.71;85.00
70830;SHT30;58451;51.550;7.208;2024-02-04T01:09:05;10.67;85.23
70830;SHT30;58451;51.550;7.208;2024-02-04T01:10:37;10.64;85.40
70830;SHT30;58451;51.550;7.208;2024-02-04T01:12:09;10.62;85.38
70830;SHT30;58451;51.550;7.208;2024-02-04T01:13:41;10.59;85.25
70830;SHT30;58451;51.550;7.208;2024-02-04T01:15:13;10.57;85.27
70830;SHT30;58451;51.550;7.208;2024-02-04T01:16:45;10.56;85.38
70830;SHT30;58451;51.550;7.208;2024-02-04T01:18:17;10.53;85.72
70830;SHT30;58451;51.550;7.208;2024-02-04T01:19:48;10.52;85.95
70830;SHT30;58451;51.550;7.208;2024-02-04T01:21:20;10.51;85.85
70830;SHT30;58451;51.550;7.208;2024-02-04T01:22:52;10.49;85.97
70830;SHT30;58451;51.550;7.208;2024-02-04T01:24:25;10.48;85.90
70830;SHT30;58451;51.550;7.208;2024-02-04T01:25:57;10.47;85.80
70830;SHT30;58451;51.550;7.208;2024-02-04T01:27:29;10.47;85.80
70830;SHT30;58451;51.550;7.208;2024-02-04T01:29:00;10.47;85.78
70830;SHT30;58451;51.550;7.208;2024-02-04T01:30:33;10.47;85.83
70830;SHT30;58451;51.550;7.208;2024-02-04T01:32:05;10.47;85.95
70830;SHT30;58451;51.550;7.208;2024-02-04T01:33:37;10.45;86.18
70830;SHT30;58451;51.550;7.208;2024-02-04T01:35:09;10.45;86.40
70830;SHT30;58451;51.550;7.208;2024-02-04T01:36:42;10.43;86.38
70830;SHT30;58451;51.550;7.208;2024-02-04T01:38:13;10.43;86.37
70830;SHT30;58451;51.550;7.208;2024-02-04T01:39:45;10.43;86.53
70830;SHT30;58451;51.550;7.208;2024-02-04T01:41:18;10.43;86.48
70830;SHT30;58451;51.550;7.208;2024-02-04T01:42:50;10.43;86.45
70830;SHT30;58451;51.550;7.208;2024-02-04T01:44:22;10.42;86.63
70830;SHT30;58451;51.550;7.208;2024-02-04T01:45:55;10.43;86.57
70830;SHT30;58451;51.550;7.208;2024-02-04T01:47:28;10.43;86.50
70830;SHT30;58451;51.550;7.208;2024-02-04T01:49:00;10.44;86.50
70830;SHT30;58451;51.550;7.208;2024-02-04T01:50:32;10.44;86.45
70830;SHT30;58451;51.550;7.208;2024-02-04T01:52:04;10.44;86.52
70830;SHT30;58451;51.550;7.208;2024-02-04T01:53:38;10.45;86.50
70830;SHT30;58451;51.550;7.208;2024-02-04T01:55:15;10.45;86.47
70830;SHT30;58451;51.550;7.208;2024-02-04T01:56:47;10.44;86.50
70830;SHT30;58451;51.550;7.208;2024-02-04T01:58:22;10.43;86.72
70830;SHT30;58451;51.550;7.208;2024-02-04T01:59:54;10.43;86.72
70830;SHT30;58451;51.550;7.208;2024-02-04T02:01:28;10.44;86.68
70830;SHT30;58451;51.550;7.208;2024-02-04T02:03:01;10.45;86.60
70830;SHT30;58451;51.550;7.208;2024-02-04T02:04:36;10.45;86.60
70830;SHT30;58451;51.550;7.208;2024-02-04T02:06:10;10.45;86.60
70830;SHT30;58451;51.550;7.208;2024-02-04T02:07:42;10.46;86.65
70830;SHT30;58451;51.550;7.208;2024-02-04T02:09:17;10.45;86.62
70830;SHT30;58451;51.550;7.208;2024-02-04T02:10:49;10.46;86.67
70830;SHT30;58451;51.550;7.208;2024-02-04T02:12:30;10.47;86.65
70830;SHT30;58451;51.550;7.208;2024-02-04T02:14:13;10.48;86.67
70830;SHT30;58451;51.550;7.208;2024-02-04T02:15:54;10.48;86.65
70830;SHT30;58451;51.550;7.208;2024-02-04T02:18:20;10.48;86.77
70830;SHT30;58451;51.550;7.208;2024-02-04T02:21:50;10.48;86.82
70830;SHT30;58451;51.550;7.208;2024-02-04T02:23:36;10.49;86.75
70830;SHT30;58451;51.550;7.208;2024-02-04T02:25:36;10.49;86.77
70830;SHT30;58451;51.550;7.208;2024-02-04T02:27:09;10.49;86.88
70830;SHT30;58451;51.550;7.208;2024-02-04T02:28:41;10.50;86.92
70830;SHT30;58451;51.550;7.208;2024-02-04T02:30:13;10.49;86.97
70830;SHT30;58451;51.550;7.208;2024-02-04T02:31:45;10.50;86.95
70830;SHT30;58451;51.550;7.208;2024-02-04T02:33:19;10.50;87.12
70830;SHT30;58451;51.550;7.208;2024-02-04T02:34:52;10.52;87.02
70830;SHT30;58451;51.550;7.208;2024-02-04T02:36:24;10.53;87.17
70830;SHT30;58451;51.550;7.208;2024-02-04T02:40:05;10.54;87.00
70830;SHT30;58451;51.550;7.208;2024-02-04T02:41:49;10.55;86.97
70830;SHT30;58451;51.550;7.208;2024-02-04T02:43:27;10.55;86.98
70830;SHT30;58451;51.550;7.208;2024-02-04T02:45:01;10.55;86.97
70830;SHT30;58451;51.550;7.208;2024-02-04T02:46:34;10.57;86.98
70830;SHT30;58451;51.550;7.208;2024-02-04T02:48:08;10.58;86.97
70830;SHT30;58451;51.550;7.208;2024-02-04T02:49:42;10.59;86.93
70830;SHT30;58451;51.550;7.208;2024-02-04T02:51:14;10.58;86.92
70830;SHT30;58451;51.550;7.208;2024-02-04T02:52:46;10.61;86.93
70830;SHT30;58451;51.550;7.208;2024-02-04T02:54:17;10.62;86.88
70830;SHT30;58451;51.550;7.208;2024-02-04T02:55:49;10.63;86.90
70830;SHT30;58451;51.550;7.208;2024-02-04T02:57:21;10.65;86.88
70830;SHT30;58451;51.550;7.208;2024-02-04T02:58:53;10.67;86.83
70830;SHT30;58451;51.550;7.208;2024-02-04T03:00:25;10.68;86.80
70830;SHT30;58451;51.550;7.208;2024-02-04T03:01:57;10.69;86.80
70830;SHT30;58451;51.550;7.208;2024-02-04T03:03:29;10.71;86.73
70830;SHT30;58451;51.550;7.208;2024-02-04T03:05:01;10.72;86.70
70830;SHT30;58451;51.550;7.208;2024-02-04T03:06:33;10.73;86.67
70830;SHT30;58451;51.550;7.208;2024-02-04T03:08:05;10.74;86.58
70830;SHT30;58451;51.550;7.208;2024-02-04T03:09:37;10.75;86.55
70830;SHT30;58451;51.550;7.208;2024-02-04T03:11:09;10.77;86.50
70830;SHT30;58451;51.550;7.208;2024-02-04T03:12:41;10.77;86.50
70830;SHT30;58451;51.550;7.208;2024-02-04T03:14:16;10.78;86.43
70830;SHT30;58451;51.550;7.208;2024-02-04T03:15:49;10.79;86.40
70830;SHT30;58451;51.550;7.208;2024-02-04T03:17:20;10.80;86.33
70830;SHT30;58451;51.550;7.208;2024-02-04T03:18:54;10.79;86.30
70830;SHT30;58451;51.550;7.208;2024-02-04T03:20:26;10.80;86.27
70830;SHT30;58451;51.550;7.208;2024-02-04T03:21:58;10.80;86.25
70830;SHT30;58451;51.550;7.208;2024-02-04T03:23:30;10.80;86.23
70830;SHT30;58451;51.550;7.208;2024-02-04T03:25:02;10.79;86.20
70830;SHT30;58451;51.550;7.208;2024-02-04T03:26:34;10.79;86.15
70830;SHT30;58451;51.550;7.208;2024-02-04T03:28:06;10.79;86.07
70830;SHT30;58451;51.550;7.208;2024-02-04T03:29:38;10.80;86.10
70830;SHT30;58451;51.550;7.208;2024-02-04T03:31:10;10.80;86.03
70830;SHT30;58451;51.550;7.208;2024-02-04T03:32:42;10.79;86.07
70830;SHT30;58451;51.550;7.208;2024-02-04T03:34:14;10.79;86.03
70830;SHT30;58451;51.550;7.208;2024-02-04T03:35:46;10.80;86.03
70830;SHT30;58451;51.550;7.208;2024-02-04T03:37:18;10.81;86.03
70830;SHT30;58451;51.550;7.208;2024-02-04T03:38:50;10.79;85.98
70830;SHT30;58451;51.550;7.208;2024-02-04T03:40:23;10.79;85.92
70830;SHT30;58451;51.550;7.208;2024-02-04T03:41:56;10.80;85.93
70830;SHT30;58451;51.550;7.208;2024-02-04T03:43:28;10.79;85.92
70830;SHT30;58451;51.550;7.208;2024-02-04T03:45:00;10.80;85.85
70830;SHT30;58451;51.550;7.208;2024-02-04T03:46:34;10.81;85.82
70830;SHT30;58451;51.550;7.208;2024-02-04T03:48:06;10.82;85.90
70830;SHT30;58451;51.550;7.208;2024-02-04T03:49:38;10.81;85.82
70830;SHT30;58451;51.550;7.208;2024-02-04T03:51:17;10.82;85.83
70830;SHT30;58451;51.550;7.208;2024-02-04T03:52:50;10.82;85.82
70830;SHT30;58451;51.550;7.208;2024-02-04T03:54:22;10.84;85.82
70830;SHT30;58451;51.550;7.208;2024-02-04T03:55:54;10.83;85.80
70830;SHT30;58451;51.550;7.208;2024-02-04T03:57:26;10.83;85.83
70830;SHT30;58451;51.550;7.208;2024-02-04T03:58:58;10.85;85.80
70830;SHT30;58451;51.550;7.208;2024-02-04T04:00:30;10.85;85.80
70830;SHT30;58451;51.550;7.208;2024-02-04T04:02:02;10.84;85.80
70830;SHT30;58451;51.550;7.208;2024-02-04T04:03:34;10.84;85.77
70830;SHT30;58451;51.550;7.208;2024-02-04T04:05:10;10.83;85.77
70830;SHT30;58451;51.550;7.208;2024-02-04T04:06:44;10.85;85.80
70830;SHT30;58451;51.550;7.208;2024-02-04T04:08:17;10.85;85.78
70830;SHT30;58451;51.550;7.208;2024-02-04T04:09:50;10.86;85.78
70830;SHT30;58451;51.550;7.208;2024-02-04T04:11:21;10.85;85.80
70830;SHT30;58451;51.550;7.208;2024-02-04T04:12:53;10.86;85.78
70830;SHT30;58451;51.550;7.208;2024-02-04T04:14:25;10.86;85.78
70830;SHT30;58451;51.550;7.208;2024-02-04T04:15:57;10.85;85.80
70830;SHT30;58451;51.550;7.208;2024-02-04T04:17:29;10.87;85.78
70830;SHT30;58451;51.550;7.208;2024-02-04T04:19:01;10.86;85.80
70830;SHT30;58451;51.550;7.208;2024-02-04T04:20:34;10.85;85.77
70830;SHT30;58451;51.550;7.208;2024-02-04T04:22:08;10.86;85.77
70830;SHT30;58451;51.550;7.208;2024-02-04T04:23:40;10.86;85.77
70830;SHT30;58451;51.550;7.208;2024-02-04T04:25:12;10.86;85.80
70830;SHT30;58451;51.550;7.208;2024-02-04T04:26:45;10.86;85.80
70830;SHT30;58451;51.550;7.208;2024-02-04T04:28:17;10.86;85.82
70830;SHT30;58451;51.550;7.208;2024-02-04T04:29:49;10.86;85.82
70830;SHT30;58451;51.550;7.208;2024-02-04T04:31:21;10.87;85.83
70830;SHT30;58451;51.550;7.208;2024-02-04T04:32:56;10.87;85.87
70830;SHT30;58451;51.550;7.208;2024-02-04T04:34:30;10.85;85.90
70830;SHT30;58451;51.550;7.208;2024-02-04T04:36:02;10.86;85.87
70830;SHT30;58451;51.550;7.208;2024-02-04T04:37:34;10.87;85.88
70830;SHT30;58451;51.550;7.208;2024-02-04T04:39:06;10.87;85.88
70830;SHT30;58451;51.550;7.208;2024-02-04T04:40:37;10.86;85.90
70830;SHT30;58451;51.550;7.208;2024-02-04T04:42:12;10.86;85.97
70830;SHT30;58451;51.550;7.208;2024-02-04T04:43:43;10.86;85.92
70830;SHT30;58451;51.550;7.208;2024-02-04T04:45:15;10.86;86.00
70830;SHT30;58451;51.550;7.208;2024-02-04T04:46:47;10.88;86.00
70830;SHT30;58451;51.550;7.208;2024-02-04T04:48:20;10.86;86.00
70830;SHT30;58451;51.550;7.208;2024-02-04T04:49:52;10.88;86.00
70830;SHT30;58451;51.550;7.208;2024-02-04T04:51:24;10.88;85.98
70830;SHT30;58451;51.550;7.208;2024-02-04T04:52:56;10.89;85.98
70830;SHT30;58451;51.550;7.208;2024-02-04T04:54:28;10.89;86.00
70830;SHT30;58451;51.550;7.208;2024-02-04T04:55:59;10.89;86.00
70830;SHT30;58451;51.550;7.208;2024-02-04T04:57:31;10.90;86.00
70830;SHT30;58451;51.550;7.208;2024-02-04T04:59:03;10.90;85.97
70830;SHT30;58451;51.550;7.208;2024-02-04T05:00:35;10.91;85.97
70830;SHT30;58451;51.550;7.208;2024-02-04T05:02:07;10.91;85.95
70830;SHT30;58451;51.550;7.208;2024-02-04T05:03:40;10.90;85.97
70830;SHT30;58451;51.550;7.208;2024-02-04T05:05:11;10.93;85.92
70830;SHT30;58451;51.550;7.208;2024-02-04T05:06:44;10.94;85.90
70830;SHT30;58451;51.550;7.208;2024-02-04T05:08:16;10.93;85.88
70830;SHT30;58451;51.550;7.208;2024-02-04T05:09:53;10.93;85.88
70830;SHT30;58451;51.550;7.208;2024-02-04T05:11:25;10.93;85.82
70830;SHT30;58451;51.550;7.208;2024-02-04T05:12:56;10.92;85.82
70830;SHT30;58451;51.550;7.208;2024-02-04T05:14:28;10.91;85.80
70830;SHT30;58451;51.550;7.208;2024-02-04T05:16:00;10.93;85.73
70830;SHT30;58451;51.550;7.208;2024-02-04T05:17:32;10.92;85.67
70830;SHT30;58451;51.550;7.208;2024-02-04T05:19:05;10.94;85.55
70830;SHT30;58451;51.550;7.208;2024-02-04T05:20:37;10.95;85.45
70830;SHT30;58451;51.550;7.208;2024-02-04T05:22:09;10.96;85.40
70830;SHT30;58451;51.550;7.208;2024-02-04T05:23:41;10.97;85.33
70830;SHT30;58451;51.550;7.208;2024-02-04T05:25:13;10.97;85.15
70830;SHT30;58451;51.550;7.208;2024-02-04T05:26:45;10.97;84.93
70830;SHT30;58451;51.550;7.208;2024-02-04T05:28:19;10.97;84.80
70830;SHT30;58451;51.550;7.208;2024-02-04T05:29:51;10.98;84.80
70830;SHT30;58451;51.550;7.208;2024-02-04T05:31:23;10.99;84.70
70830;SHT30;58451;51.550;7.208;2024-02-04T05:32:54;10.98;84.70
70830;SHT30;58451;51.550;7.208;2024-02-04T05:34:26;10.98;84.52
70830;SHT30;58451;51.550;7.208;2024-02-04T05:35:58;10.98;84.43
70830;SHT30;58451;51.550;7.208;2024-02-04T05:37:30;10.99;84.23
70830;SHT30;58451;51.550;7.208;2024-02-04T05:39:08;11.00;84.27
70830;SHT30;58451;51.550;7.208;2024-02-04T05:40:49;11.00;84.27
70830;SHT30;58451;51.550;7.208;2024-02-04T05:42:21;10.99;84.10
70830;SHT30;58451;51.550;7.208;2024-02-04T05:43:53;10.98;84.02
70830;SHT30;58451;51.550;7.208;2024-02-04T05:45:24;10.99;84.03
70830;SHT30;58451;51.550;7.208;2024-02-04T05:46:57;11.00;84.05
70830;SHT30;58451;51.550;7.208;2024-02-04T05:48:29;10.98;84.03
70830;SHT30;58451;51.550;7.208;2024-02-04T05:50:01;10.98;84.05
70830;SHT30;58451;51.550;7.208;2024-02-04T05:51:37;10.97;84.00
70830;SHT30;58451;51.550;7.208;2024-02-04T05:53:13;10.96;83.98
70830;SHT30;58451;51.550;7.208;2024-02-04T05:54:45;10.96;84.00
70830;SHT30;58451;51.550;7.208;2024-02-04T05:56:17;10.96;84.02
70830;SHT30;58451;51.550;7.208;2024-02-04T05:57:49;10.96;84.05
70830;SHT30;58451;51.550;7.208;2024-02-04T05:59:21;10.94;83.80
70830;SHT30;58451;51.550;7.208;2024-02-04T06:00:53;10.94;83.92
70830;SHT30;58451;51.550;7.208;2024-02-04T06:02:25;10.97;83.87
70830;SHT30;58451;51.550;7.208;2024-02-04T06:03:56;10.96;83.88
70830;SHT30;58451;51.550;7.208;2024-02-04T06:05:28;10.96;83.93
70830;SHT30;58451;51.550;7.208;2024-02-04T06:07:00;10.96;83.88
70830;SHT30;58451;51.550;7.208;2024-02-04T06:08:32;10.93;83.68
70830;SHT30;58451;51.550;7.208;2024-02-04T06:10:04;10.95;83.80
70830;SHT30;58451;51.550;7.208;2024-02-04T06:11:39;10.94;83.80
70830;SHT30;58451;51.550;7.208;2024-02-04T06:13:11;10.94;83.80
70830;SHT30;58451;51.550;7.208;2024-02-04T06:14:43;10.93;83.83
70830;SHT30;58451;51.550;7.208;2024-02-04T06:16:15;10.93;83.82
70830;SHT30;58451;51.550;7.208;2024-02-04T06:17:47;10.91;83.88
70830;SHT30;58451;51.550;7.208;2024-02-04T06:19:19;10.92;83.92
70830;SHT30;58451;51.550;7.208;2024-02-04T06:20:51;10.90;84.00
70830;SHT30;58451;51.550;7.208;2024-02-04T06:22:23;10.90;84.00
70830;SHT30;58451;51.550;7.208;2024-02-04T06:23:56;10.89;84.05
70830;SHT30;58451;51.550;7.208;2024-02-04T06:25:28;10.87;84.10
70830;SHT30;58451;51.550;7.208;2024-02-04T06:27:00;10.86;84.10
70830;SHT30;58451;51.550;7.208;2024-02-04T06:28:31;10.85;84.15
70830;SHT30;58451;51.550;7.208;2024-02-04T06:30:04;10.83;84.18
70830;SHT30;58451;51.550;7.208;2024-02-04T06:31:45;10.83;84.22
70830;SHT30;58451;51.550;7.208;2024-02-04T06:33:18;10.83;84.30
70830;SHT30;58451;51.550;7.208;2024-02-04T06:34:50;10.83;84.30
70830;SHT30;58451;51.550;7.208;2024-02-04T06:36:23;10.83;84.32
70830;SHT30;58451;51.550;7.208;2024-02-04T06:37:55;10.83;84.40
70830;SHT30;58451;51.550;7.208;2024-02-04T06:39:30;10.82;84.42
70830;SHT30;58451;51.550;7.208;2024-02-04T06:41:02;10.82;84.40
70830;SHT30;58451;51.550;7.208;2024-02-04T06:42:34;10.82;84.47
70830;SHT30;58451;51.550;7.208;2024-02-04T06:44:06;10.80;84.50
70830;SHT30;58451;51.550;7.208;2024-02-04T06:45:39;10.79;84.50
70830;SHT30;58451;51.550;7.208;2024-02-04T06:47:14;10.76;84.62
70830;SHT30;58451;51.550;7.208;2024-02-04T06:48:46;10.74;84.63
70830;SHT30;58451;51.550;7.208;2024-02-04T06:50:18;10.71;84.85
70830;SHT30;58451;51.550;7.208;2024-02-04T06:51:50;10.70;84.95
70830;SHT30;58451;51.550;7.208;2024-02-04T06:53:24;10.67;85.05
70830;SHT30;58451;51.550;7.208;2024-02-04T06:54:56;10.68;85.07
70830;SHT30;58451;51.550;7.208;2024-02-04T06:56:28;10.66;85.27
70830;SHT30;58451;51.550;7.208;2024-02-04T06:58:00;10.65;85.27
70830;SHT30;58451;51.550;7.208;2024-02-04T06:59:32;10.64;85.22
70830;SHT30;58451;51.550;7.208;2024-02-04T07:01:04;10.64;85.37
70830;SHT30;58451;51.550;7.208;2024-02-04T07:02:36;10.63;85.52
70830;SHT30;58451;51.550;7.208;2024-02-04T07:04:10;10.64;85.48
70830;SHT30;58451;51.550;7.208;2024-02-04T07:05:42;10.65;85.43
70830;SHT30;58451;51.550;7.208;2024-02-04T07:07:18;10.65;85.40
70830;SHT30;58451;51.550;7.208;2024-02-04T07:08:50;10.65;85.47
70830;SHT30;58451;51.550;7.208;2024-02-04T07:10:22;10.65;85.50
70830;SHT30;58451;51.550;7.208;2024-02-04T07:11:54;10.67;85.53
70830;SHT30;58451;51.550;7.208;2024-02-04T07:13:26;10.69;85.45
70830;SHT30;58451;51.550;7.208;2024-02-04T07:14:57;10.70;85.47
70830;SHT30;58451;51.550;7.208;2024-02-04T07:16:30;10.71;85.42
70830;SHT30;58451;51.550;7.208;2024-02-04T07:18:02;10.72;85.50
70830;SHT30;58451;51.550;7.208;2024-02-04T07:19:34;10.73;85.53
70830;SHT30;58451;51.550;7.208;2024-02-04T07:21:07;10.75;85.50
70830;SHT30;58451;51.550;7.208;2024-02-04T07:22:39;10.76;85.45
70830;SHT30;58451;51.550;7.208;2024-02-04T07:24:11;10.77;85.40
70830;SHT30;58451;51.550;7.208;2024-02-04T07:25:43;10.78;85.37
70830;SHT30;58451;51.550;7.208;2024-02-04T07:27:15;10.80;85.32
70830;SHT30;58451;51.550;7.208;2024-02-04T07:28:47;10.81;85.30
70830;SHT30;58451;51.550;7.208;2024-02-04T07:30:19;10.83;85.23
70830;SHT30;58451;51.550;7.208;2024-02-04T07:31:52;10.84;85.20
70830;SHT30;58451;51.550;7.208;2024-02-04T07:33:24;10.85;85.12
70830;SHT30;58451;51.550;7.208;2024-02-04T07:34:56;10.89;85.10
70830;SHT30;58451;51.550;7.208;2024-02-04T07:36:28;10.88;85.02
70830;SHT30;58451;51.550;7.208;2024-02-04T07:38:00;10.90;84.97
70830;SHT30;58451;51.550;7.208;2024-02-04T07:39:31;10.93;84.93
70830;SHT30;58451;51.550;7.208;2024-02-04T07:41:04;10.95;84.90
70830;SHT30;58451;51.550;7.208;2024-02-04T07:42:35;10.94;84.90
70830;SHT30;58451;51.550;7.208;2024-02-04T07:44:07;10.94;84.87
70830;SHT30;58451;51.550;7.208;2024-02-04T07:45:39;10.96;84.88
70830;SHT30;58451;51.550;7.208;2024-02-04T07:47:11;10.96;84.77
70830;SHT30;58451;51.550;7.208;2024-02-04T07:48:43;10.97;84.70
70830;SHT30;58451;51.550;7.208;2024-02-04T07:50:15;10.98;84.72
70830;SHT30;58451;51.550;7.208;2024-02-04T07:51:48;10.99;84.68
70830;SHT30;58451;51.550;7.208;2024-02-04T07:53:20;10.98;84.67
70830;SHT30;58451;51.550;7.208;2024-02-04T07:54:53;11.01;84.63
70830;SHT30;58451;51.550;7.208;2024-02-04T07:56:26;11.01;84.58
70830;SHT30;58451;51.550;7.208;2024-02-04T07:57:58;11.02;84.53
70830;SHT30;58451;51.550;7.208;2024-02-04T07:59:29;11.04;84.37
70830;SHT30;58451;51.550;7.208;2024-02-04T08:01:01;11.05;84.25
70830;SHT30;58451;51.550;7.208;2024-02-04T08:02:34;11.06;84.30
70830;SHT30;58451;51.550;7.208;2024-02-04T08:04:08;11.07;84.32
70830;SHT30;58451;51.550;7.208;2024-02-04T08:05:42;11.08;84.23
70830;SHT30;58451;51.550;7.208;2024-02-04T08:07:14;11.08;84.10
70830;SHT30;58451;51.550;7.208;2024-02-04T08:08:49;11.08;83.98
70830;SHT30;58451;51.550;7.208;2024-02-04T08:10:22;11.09;83.98
70830;SHT30;58451;51.550;7.208;2024-02-04T08:11:54;11.11;84.00
70830;SHT30;58451;51.550;7.208;2024-02-04T08:13:29;11.10;83.92
70830;SHT30;58451;51.550;7.208;2024-02-04T08:15:01;11.11;83.90
70830;SHT30;58451;51.550;7.208;2024-02-04T08:16:33;11.10;83.92
70830;SHT30;58451;51.550;7.208;2024-02-04T08:18:04;11.10;83.92
70830;SHT30;58451;51.550;7.208;2024-02-04T08:19:39;11.11;83.98
70830;SHT30;58451;51.550;7.208;2024-02-04T08:21:11;11.11;83.90
70830;SHT30;58451;51.550;7.208;2024-02-04T08:22:43;11.14;83.87
70830;SHT30;58451;51.550;7.208;2024-02-04T08:24:15;11.18;83.78
70830;SHT30;58451;51.550;7.208;2024-02-04T08:25:47;11.20;83.57
70830;SHT30;58451;51.550;7.208;2024-02-04T08:27:19;11.26;83.48
70830;SHT30;58451;51.550;7.208;2024-02-04T08:28:50;11.30;83.43
70830;SHT30;58451;51.550;7.208;2024-02-04T08:30:22;11.33;83.38
70830;SHT30;58451;51.550;7.208;2024-02-04T08:31:54;11.34;83.22
70830;SHT30;58451;51.550;7.208;2024-02-04T08:33:26;11.34;82.92
70830;SHT30;58451;51.550;7.208;2024-02-04T08:34:58;11.37;82.83
70830;SHT30;58451;51.550;7.208;2024-02-04T08:36:30;11.37;82.80
70830;SHT30;58451;51.550;7.208;2024-02-04T08:38:02;11.37;82.58
70830;SHT30;58451;51.550;7.208;2024-02-04T08:39:34;11.40;82.65
70830;SHT30;58451;51.550;7.208;2024-02-04T08:41:06;11.41;82.37
70830;SHT30;58451;51.550;7.208;2024-02-04T08:42:38;11.45;82.37
70830;SHT30;58451;51.550;7.208;2024-02-04T08:44:10;11.49;82.22
70830;SHT30;58451;51.550;7.208;2024-02-04T08:45:53;11.51;82.00
70830;SHT30;58451;51.550;7.208;2024-02-04T08:47:25;11.52;82.00
70830;SHT30;58451;51.550;7.208;2024-02-04T08:48:56;11.52;81.30
70830;SHT30;58451;51.550;7.208;2024-02-04T08:50:29;11.53;80.97
70830;SHT30;58451;51.550;7.208;2024-02-04T08:52:01;11.58;81.20
70830;SHT30;58451;51.550;7.208;2024-02-04T08:53:33;11.60;81.07
70830;SHT30;58451;51.550;7.208;2024-02-04T08:55:06;11.63;80.53
70830;SHT30;58451;51.550;7.208;2024-02-04T08:56:38;11.63;80.57
70830;SHT30;58451;51.550;7.208;2024-02-04T08:58:10;11.62;80.62
70830;SHT30;58451;51.550;7.208;2024-02-04T08:59:42;11.61;80.48
70830;SHT30;58451;51.550;7.208;2024-02-04T09:01:14;11.64;80.58
70830;SHT30;58451;51.550;7.208;2024-02-04T09:02:46;11.65;80.57
70830;SHT30;58451;51.550;7.208;2024-02-04T09:04:18;11.66;80.47
70830;SHT30;58451;51.550;7.208;2024-02-04T09:05:50;11.68;80.63
70830;SHT30;58451;51.550;7.208;2024-02-04T09:07:22;11.67;80.63
70830;SHT30;58451;51.550;7.208;2024-02-04T09:08:54;11.65;80.40
70830;SHT30;58451;51.550;7.208;2024-02-04T09:10:26;11.64;80.47
70830;SHT30;58451;51.550;7.208;2024-02-04T09:11:58;11.63;80.35
70830;SHT30;58451;51.550;7.208;2024-02-04T09:13:30;11.60;80.35
70830;SHT30;58451;51.550;7.208;2024-02-04T09:15:02;11.60;80.17
70830;SHT30;58451;51.550;7.208;2024-02-04T09:16:39;11.60;80.03
70830;SHT30;58451;51.550;7.208;2024-02-04T09:18:11;11.60;79.47
70830;SHT30;58451;51.550;7.208;2024-02-04T09:19:43;11.54;79.20
70830;SHT30;58451;51.550;7.208;2024-02-04T09:21:15;11.49;79.23
70830;SHT30;58451;51.550;7.208;2024-02-04T09:22:47;11.41;79.08
70830;SHT30;58451;51.550;7.208;2024-02-04T09:24:19;11.32;79.23
70830;SHT30;58451;51.550;7.208;2024-02-04T09:25:51;11.25;79.57
70830;SHT30;58451;51.550;7.208;2024-02-04T09:27:23;11.15;79.85
70830;SHT30;58451;51.550;7.208;2024-02-04T09:28:57;11.07;80.08
70830;SHT30;58451;51.550;7.208;2024-02-04T09:30:29;10.99;80.20
70830;SHT30;58451;51.550;7.208;2024-02-04T09:32:01;10.89;80.37
70830;SHT30;58451;51.550;7.208;2024-02-04T09:33:33;10.80;80.62
70830;SHT30;58451;51.550;7.208;2024-02-04T09:35:05;10.74;80.82
70830;SHT30;58451;51.550;7.208;2024-02-04T09:36:38;10.68;80.95
70830;SHT30;58451;51.550;7.208;2024-02-04T09:38:10;10.61;81.08
70830;SHT30;58451;51.550;7.208;2024-02-04T09:39:45;10.58;81.30
70830;SHT30;58451;51.550;7.208;2024-02-04T09:41:17;10.56;81.27
70830;SHT30;58451;51.550;7.208;2024-02-04T09:42:48;10.52;81.33
70830;SHT30;58451;51.550;7.208;2024-02-04T09:44:21;10.48;81.45
70830;SHT30;58451;51.550;7.208;2024-02-04T09:45:56;10.48;81.53
70830;SHT30;58451;51.550;7.208;2024-02-04T09:47:28;10.44;81.63
70830;SHT30;58451;51.550;7.208;2024-02-04T09:49:02;10.44;81.70
70830;SHT30;58451;51.550;7.208;2024-02-04T09:50:35;10.41;81.95